sensor_id;sensor_type;location;lat;lon;timestamp;pressure;altitude;pressure_sealevel;temperature;humidity
43119;BME280;28729;49.838;8.650;2023-04-06T00:02:29;100049.47;;;2.86;55.48
43119;BME280;28729;49.838;8.650;2023-04-06T00:06:31;100044.47;;;2.89;55.38
43119;BME280;28729;49.838;8.650;2023-04-06T00:10:33;100045.63;;;3.02;56.18
43119;BME280;28729;49.838;8.650;2023-04-06T00:14:35;100044.28;;;3.12;56.46
43119;BME280;28729;49.838;8.650;2023-04-06T00:18:37;100040.75;;;3.18;56.67
43119;BME280;28729;49.838;8.650;2023-04-06T00:22:38;100036.34;;;3.17;56.63
43119;BME280;28729;49.838;8.650;2023-04-06T00:26:40;100039.44;;;3.14;56.33
43119;BME280;28729;49.838;8.650;2023-04-06T00:30:42;100042.69;;;3.03;56.59
43119;BME280;28729;49.838;8.650;2023-04-06T00:34:44;100039.41;;;2.86;57.66
43119;BME280;28729;49.838;8.650;2023-04-06T00:38:46;100025.25;;;2.76;58.26
43119;BME280;28729;49.838;8.650;2023-04-06T00:42:47;100020.66;;;2.77;59.24
43119;BME280;28729;49.838;8.650;2023-04-06T00:46:49;100022.38;;;2.78;59.24
43119;BME280;28729;49.838;8.650;2023-04-06T00:50:51;100016.53;;;2.81;59.20
43119;BME280;28729;49.838;8.650;2023-04-06T00:54:53;100013.81;;;2.81;59.36
43119;BME280;28729;49.838;8.650;2023-04-06T00:58:56;100004.31;;;2.77;59.08
43119;BME280;28729;49.838;8.650;2023-04-06T01:02:58;99998.44;;;2.73;59.38
43119;BME280;28729;49.838;8.650;2023-04-06T01:07:08;99998.38;;;2.66;59.51
43119;BME280;28729;49.838;8.650;2023-04-06T01:11:18;100001.69;;;2.62;59.46
43119;BME280;28729;49.838;8.650;2023-04-06T01:15:22;99990.53;;;2.57;60.10
43119;BME280;28729;49.838;8.650;2023-04-06T01:19:26;99993.00;;;2.51;60.69
43119;BME280;28729;49.838;8.650;2023-04-06T01:23:29;99991.06;;;2.45;61.26
43119;BME280;28729;49.838;8.650;2023-04-06T01:27:31;99995.59;;;2.38;61.87
43119;BME280;28729;49.838;8.650;2023-04-06T01:31:50;99982.94;;;2.31;62.62
43119;BME280;28729;49.838;8.650;2023-04-06T01:35:53;99978.25;;;2.24;62.24
43119;BME280;28729;49.838;8.650;2023-04-06T01:39:55;99983.03;;;2.22;62.33
43119;BME280;28729;49.838;8.650;2023-04-06T01:44:16;99996.38;;;2.17;62.93
43119;BME280;28729;49.838;8.650;2023-04-06T01:48:22;99997.53;;;1.93;62.52
43119;BME280;28729;49.838;8.650;2023-04-06T01:52:24;99993.72;;;1.73;63.28
43119;BME280;28729;49.838;8.650;2023-04-06T01:56:27;99998.59;;;1.63;64.04
43119;BME280;28729;49.838;8.650;2023-04-06T02:00:40;99989.88;;;1.52;64.57
43119;BME280;28729;49.838;8.650;2023-04-06T02:04:42;99983.50;;;1.45;64.78
43119;BME280;28729;49.838;8.650;2023-04-06T02:08:47;99979.09;;;1.44;64.86
43119;BME280;28729;49.838;8.650;2023-04-06T02:12:48;99972.63;;;1.45;64.99
43119;BME280;28729;49.838;8.650;2023-04-06T02:16:57;99973.84;;;1.43;64.92
43119;BME280;28729;49.838;8.650;2023-04-06T02:20:59;99975.72;;;1.42;65.21
43119;BME280;28729;49.838;8.650;2023-04-06T02:25:01;99971.78;;;1.45;65.35
43119;BME280;28729;49.838;8.650;2023-04-06T02:29:02;99966.38;;;1.45;65.41
43119;BME280;28729;49.838;8.650;2023-04-06T02:33:06;99974.03;;;1.41;66.00
43119;BME280;28729;49.838;8.650;2023-04-06T02:37:16;99962.91;;;1.36;66.96
43119;BME280;28729;49.838;8.650;2023-04-06T02:41:18;99969.53;;;1.33;67.05
43119;BME280;28729;49.838;8.650;2023-04-06T02:45:20;99960.47;;;1.26;67.41
43119;BME280;28729;49.838;8.650;2023-04-06T02:49:22;99965.59;;;1.21;68.12
43119;BME280;28729;49.838;8.650;2023-04-06T02:53:28;99967.91;;;1.09;67.79
43119;BME280;28729;49.838;8.650;2023-04-06T02:57:30;99973.63;;;1.00;68.11
43119;BME280;28729;49.838;8.650;2023-04-06T03:01:32;99969.97;;;0.93;69.37
43119;BME280;28729;49.838;8.650;2023-04-06T03:05:37;99973.03;;;0.89;70.42
43119;BME280;28729;49.838;8.650;2023-04-06T03:09:40;99974.25;;;0.87;70.22
43119;BME280;28729;49.838;8.650;2023-04-06T03:13:42;99978.84;;;0.86;70.25
43119;BME280;28729;49.838;8.650;2023-04-06T03:17:44;99972.53;;;0.86;70.27
43119;BME280;28729;49.838;8.650;2023-04-06T03:22:01;99972.53;;;0.86;70.40
43119;BME280;28729;49.838;8.650;2023-04-06T03:26:03;99977.13;;;0.85;70.71
43119;BME280;28729;49.838;8.650;2023-04-06T03:30:06;99981.03;;;0.83;70.46
43119;BME280;28729;49.838;8.650;2023-04-06T03:34:09;99973.47;;;0.78;70.70
43119;BME280;28729;49.838;8.650;2023-04-06T03:38:11;99984.31;;;0.78;71.36
43119;BME280;28729;49.838;8.650;2023-04-06T03:42:12;99986.38;;;0.76;71.61
43119;BME280;28729;49.838;8.650;2023-04-06T03:46:22;99983.19;;;0.73;72.63
43119;BME280;28729;49.838;8.650;2023-04-06T03:50:27;99986.41;;;0.68;73.50
43119;BME280;28729;49.838;8.650;2023-04-06T03:54:29;99978.66;;;0.65;73.26
43119;BME280;28729;49.838;8.650;2023-04-06T03:58:31;99981.38;;;0.65;72.91
43119;BME280;28729;49.838;8.650;2023-04-06T04:02:33;99985.59;;;0.67;72.65
43119;BME280;28729;49.838;8.650;2023-04-06T04:06:34;99979.63;;;0.72;73.08
43119;BME280;28729;49.838;8.650;2023-04-06T04:10:38;99979.25;;;0.75;73.04
43119;BME280;28729;49.838;8.650;2023-04-06T04:14:40;99978.22;;;0.76;73.50
43119;BME280;28729;49.838;8.650;2023-04-06T04:18:42;99986.47;;;0.83;73.41
43119;BME280;28729;49.838;8.650;2023-04-06T04:22:45;99991.06;;;0.82;74.13
43119;BME280;28729;49.838;8.650;2023-04-06T04:26:46;100003.69;;;0.75;74.55
43119;BME280;28729;49.838;8.650;2023-04-06T04:30:48;100006.06;;;0.70;75.41
43119;BME280;28729;49.838;8.650;2023-04-06T04:34:50;100010.81;;;0.68;76.43
43119;BME280;28729;49.838;8.650;2023-04-06T04:39:05;100008.00;;;0.61;77.02
43119;BME280;28729;49.838;8.650;2023-04-06T04:43:12;99995.47;;;0.60;77.21
43119;BME280;28729;49.838;8.650;2023-04-06T04:47:14;100000.72;;;0.62;77.56
43119;BME280;28729;49.838;8.650;2023-04-06T04:51:20;100010.19;;;0.66;77.49
43119;BME280;28729;49.838;8.650;2023-04-06T04:55:47;100013.19;;;0.71;78.30
43119;BME280;28729;49.838;8.650;2023-04-06T04:59:50;100016.56;;;0.73;77.97
43119;BME280;28729;49.838;8.650;2023-04-06T05:03:54;100014.88;;;0.72;78.58
43119;BME280;28729;49.838;8.650;2023-04-06T05:07:56;100016.56;;;0.73;79.62
43119;BME280;28729;49.838;8.650;2023-04-06T05:12:30;100020.94;;;0.74;79.35
43119;BME280;28729;49.838;8.650;2023-04-06T05:16:44;100020.78;;;0.76;78.85
43119;BME280;28729;49.838;8.650;2023-04-06T05:20:48;100016.69;;;0.80;78.83
43119;BME280;28729;49.838;8.650;2023-04-06T05:24:51;100025.13;;;0.85;80.00
43119;BME280;28729;49.838;8.650;2023-04-06T05:28:53;100023.56;;;0.90;79.18
43119;BME280;28729;49.838;8.650;2023-04-06T05:32:57;100028.25;;;0.97;79.66
43119;BME280;28729;49.838;8.650;2023-04-06T05:37:03;100030.22;;;1.03;79.97
43119;BME280;28729;49.838;8.650;2023-04-06T05:41:07;100031.19;;;1.10;79.66
43119;BME280;28729;49.838;8.650;2023-04-06T05:45:10;100041.34;;;1.16;79.89
43119;BME280;28729;49.838;8.650;2023-04-06T05:49:14;100043.94;;;1.24;79.72
43119;BME280;28729;49.838;8.650;2023-04-06T05:53:18;100034.22;;;1.30;79.61
43119;BME280;28729;49.838;8.650;2023-04-06T05:57:28;100033.94;;;1.40;79.27
43119;BME280;28729;49.838;8.650;2023-04-06T06:01:31;100032.88;;;1.49;78.91
43119;BME280;28729;49.838;8.650;2023-04-06T06:05:34;100031.75;;;1.58;78.34
43119;BME280;28729;49.838;8.650;2023-04-06T06:09:44;100036.69;;;1.69;78.43
43119;BME280;28729;49.838;8.650;2023-04-06T06:13:56;100029.13;;;1.79;78.69
43119;BME280;28729;49.838;8.650;2023-04-06T06:17:59;100027.78;;;1.90;78.30
43119;BME280;28729;49.838;8.650;2023-04-06T06:22:03;100026.50;;;2.01;78.27
43119;BME280;28729;49.838;8.650;2023-04-06T06:26:10;100024.13;;;2.13;77.22
43119;BME280;28729;49.838;8.650;2023-04-06T06:30:12;100029.38;;;2.29;76.95
43119;BME280;28729;49.838;8.650;2023-04-06T06:34:16;100015.06;;;2.42;75.63
43119;BME280;28729;49.838;8.650;2023-04-06T06:38:18;100024.69;;;2.59;74.88
43119;BME280;28729;49.838;8.650;2023-04-06T06:42:23;100024.81;;;2.72;74.59
43119;BME280;28729;49.838;8.650;2023-04-06T06:46:55;100018.25;;;2.88;74.23
43119;BME280;28729;49.838;8.650;2023-04-06T06:50:57;100020.53;;;3.06;73.82
43119;BME280;28729;49.838;8.650;2023-04-06T06:55:00;100024.25;;;3.27;73.02
43119;BME280;28729;49.838;8.650;2023-04-06T06:59:02;100021.44;;;3.41;71.40
43119;BME280;28729;49.838;8.650;2023-04-06T07:03:05;100027.63;;;3.57;70.21
43119;BME280;28729;49.838;8.650;2023-04-06T07:07:07;100026.50;;;3.73;69.47
43119;BME280;28729;49.838;8.650;2023-04-06T07:11:10;100029.13;;;3.94;68.93
43119;BME280;28729;49.838;8.650;2023-04-06T07:15:12;100031.31;;;4.12;68.27
43119;BME280;28729;49.838;8.650;2023-04-06T07:19:18;100032.03;;;4.34;67.50
43119;BME280;28729;49.838;8.650;2023-04-06T07:23:20;100034.66;;;4.55;67.47
43119;BME280;28729;49.838;8.650;2023-04-06T07:27:22;100040.13;;;4.75;66.69
43119;BME280;28729;49.838;8.650;2023-04-06T07:31:25;100042.50;;;4.92;65.37
43119;BME280;28729;49.838;8.650;2023-04-06T07:35:29;100040.22;;;5.09;64.69
43119;BME280;28729;49.838;8.650;2023-04-06T07:39:33;100036.88;;;5.27;63.45
43119;BME280;28729;49.838;8.650;2023-04-06T07:43:40;100028.44;;;5.55;63.94
43119;BME280;28729;49.838;8.650;2023-04-06T07:47:42;100035.13;;;5.85;63.07
43119;BME280;28729;49.838;8.650;2023-04-06T07:51:44;100042.06;;;6.08;62.15
43119;BME280;28729;49.838;8.650;2023-04-06T07:55:46;100043.22;;;6.32;61.03
43119;BME280;28729;49.838;8.650;2023-04-06T07:59:48;100036.38;;;6.61;60.98
43119;BME280;28729;49.838;8.650;2023-04-06T08:03:50;100036.66;;;6.84;60.42
43119;BME280;28729;49.838;8.650;2023-04-06T08:07:52;100034.19;;;7.08;59.19
43119;BME280;28729;49.838;8.650;2023-04-06T08:11:54;100036.72;;;7.35;59.30
43119;BME280;28729;49.838;8.650;2023-04-06T08:15:56;100030.34;;;7.66;57.68
43119;BME280;28729;49.838;8.650;2023-04-06T08:19:58;100037.38;;;7.98;55.81
43119;BME280;28729;49.838;8.650;2023-04-06T08:24:01;100025.56;;;8.35;54.25
43119;BME280;28729;49.838;8.650;2023-04-06T08:28:03;100033.34;;;8.56;52.51
43119;BME280;28729;49.838;8.650;2023-04-06T08:32:05;100028.13;;;8.85;48.73
43119;BME280;28729;49.838;8.650;2023-04-06T08:36:09;100027.72;;;9.11;47.07
43119;BME280;28729;49.838;8.650;2023-04-06T08:40:14;100029.78;;;9.28;48.01
43119;BME280;28729;49.838;8.650;2023-04-06T08:44:19;100028.97;;;9.51;47.04
43119;BME280;28729;49.838;8.650;2023-04-06T08:48:21;100031.16;;;9.72;45.98
43119;BME280;28729;49.838;8.650;2023-04-06T08:52:25;100036.78;;;9.89;45.69
43119;BME280;28729;49.838;8.650;2023-04-06T08:56:28;100027.56;;;9.95;45.41
43119;BME280;28729;49.838;8.650;2023-04-06T09:00:31;100027.88;;;10.22;44.73
43119;BME280;28729;49.838;8.650;2023-04-06T09:04:34;100021.06;;;10.37;45.07
43119;BME280;28729;49.838;8.650;2023-04-06T09:08:39;100027.16;;;10.51;44.64
43119;BME280;28729;49.838;8.650;2023-04-06T09:12:41;100025.00;;;10.81;44.78
43119;BME280;28729;49.838;8.650;2023-04-06T09:16:46;100023.88;;;11.11;42.77
43119;BME280;28729;49.838;8.650;2023-04-06T09:21:06;100020.97;;;11.01;42.00
43119;BME280;28729;49.838;8.650;2023-04-06T09:25:09;100026.31;;;11.07;42.71
43119;BME280;28729;49.838;8.650;2023-04-06T09:29:25;100015.94;;;11.14;42.83
43119;BME280;28729;49.838;8.650;2023-04-06T09:33:29;100010.34;;;11.26;42.79
43119;BME280;28729;49.838;8.650;2023-04-06T09:37:30;100018.31;;;11.39;42.71
43119;BME280;28729;49.838;8.650;2023-04-06T09:41:34;100014.53;;;11.62;42.08
43119;BME280;28729;49.838;8.650;2023-04-06T09:45:37;100012.72;;;11.85;41.78
43119;BME280;28729;49.838;8.650;2023-04-06T09:49:44;100010.59;;;11.92;40.41
43119;BME280;28729;49.838;8.650;2023-04-06T09:53:52;100012.69;;;12.02;40.99
43119;BME280;28729;49.838;8.650;2023-04-06T09:58:04;100013.97;;;12.16;40.41
43119;BME280;28729;49.838;8.650;2023-04-06T10:02:08;100010.34;;;12.32;39.78
43119;BME280;28729;49.838;8.650;2023-04-06T10:06:21;100003.34;;;12.47;38.95
43119;BME280;28729;49.838;8.650;2023-04-06T10:10:23;100008.97;;;12.57;39.47
43119;BME280;28729;49.838;8.650;2023-04-06T10:14:25;100006.44;;;12.77;38.80
43119;BME280;28729;49.838;8.650;2023-04-06T10:18:27;100001.66;;;12.95;38.49
43119;BME280;28729;49.838;8.650;2023-04-06T10:22:41;100005.56;;;13.26;38.19
43119;BME280;28729;49.838;8.650;2023-04-06T10:26:57;99995.00;;;13.50;37.08
43119;BME280;28729;49.838;8.650;2023-04-06T10:31:00;99999.16;;;13.53;35.75
43119;BME280;28729;49.838;8.650;2023-04-06T10:35:10;100000.50;;;13.45;36.69
43119;BME280;28729;49.838;8.650;2023-04-06T10:39:12;99990.13;;;13.30;36.87
43119;BME280;28729;49.838;8.650;2023-04-06T10:43:21;99998.00;;;13.43;36.88
43119;BME280;28729;49.838;8.650;2023-04-06T10:47:23;100003.53;;;13.81;35.60
43119;BME280;28729;49.838;8.650;2023-04-06T10:51:27;99983.81;;;14.20;35.69
43119;BME280;28729;49.838;8.650;2023-04-06T10:55:30;99988.00;;;14.27;35.26
43119;BME280;28729;49.838;8.650;2023-04-06T10:59:32;99980.31;;;14.40;35.60
43119;BME280;28729;49.838;8.650;2023-04-06T11:03:42;99971.53;;;14.63;34.68
43119;BME280;28729;49.838;8.650;2023-04-06T11:07:44;99974.06;;;14.75;35.07
43119;BME280;28729;49.838;8.650;2023-04-06T11:11:46;99966.59;;;14.80;34.27
43119;BME280;28729;49.838;8.650;2023-04-06T11:15:48;99956.63;;;14.95;33.52
43119;BME280;28729;49.838;8.650;2023-04-06T11:19:50;99953.03;;;15.20;33.02
43119;BME280;28729;49.838;8.650;2023-04-06T11:23:52;99952.50;;;15.69;33.23
43119;BME280;28729;49.838;8.650;2023-04-06T11:27:54;99948.50;;;16.06;32.39
43119;BME280;28729;49.838;8.650;2023-04-06T11:32:03;99935.16;;;16.08;31.35
43119;BME280;28729;49.838;8.650;2023-04-06T11:36:06;99943.69;;;16.37;30.93
43119;BME280;28729;49.838;8.650;2023-04-06T11:40:10;99931.22;;;16.74;30.29
43119;BME280;28729;49.838;8.650;2023-04-06T11:44:11;99926.31;;;17.05;29.84
43119;BME280;28729;49.838;8.650;2023-04-06T11:48:19;99928.94;;;17.25;29.97
43119;BME280;28729;49.838;8.650;2023-04-06T11:52:24;99924.91;;;18.00;28.59
43119;BME280;28729;49.838;8.650;2023-04-06T11:56:30;99913.75;;;18.00;28.10
43119;BME280;28729;49.838;8.650;2023-04-06T12:00:31;99917.63;;;18.23;28.21
43119;BME280;28729;49.838;8.650;2023-04-06T12:04:36;99912.81;;;18.29;27.80
43119;BME280;28729;49.838;8.650;2023-04-06T12:08:38;99910.22;;;18.13;27.63
43119;BME280;28729;49.838;8.650;2023-04-06T12:12:40;99902.91;;;18.60;27.32
43119;BME280;28729;49.838;8.650;2023-04-06T12:16:42;99891.06;;;19.06;26.35
43119;BME280;28729;49.838;8.650;2023-04-06T12:20:44;99900.31;;;19.53;26.60
43119;BME280;28729;49.838;8.650;2023-04-06T12:24:45;99895.00;;;19.98;26.52
43119;BME280;28729;49.838;8.650;2023-04-06T12:28:47;99904.94;;;19.77;25.52
43119;BME280;28729;49.838;8.650;2023-04-06T12:32:50;99884.53;;;20.04;25.91
43119;BME280;28729;49.838;8.650;2023-04-06T12:36:52;99878.16;;;19.43;25.11
43119;BME280;28729;49.838;8.650;2023-04-06T12:40:54;99888.78;;;18.71;26.04
43119;BME280;28729;49.838;8.650;2023-04-06T12:44:56;99894.38;;;18.33;25.97
43119;BME280;28729;49.838;8.650;2023-04-06T12:48:58;99884.41;;;18.27;26.76
43119;BME280;28729;49.838;8.650;2023-04-06T12:53:00;99880.09;;;18.15;26.77
43119;BME280;28729;49.838;8.650;2023-04-06T12:57:02;99882.53;;;17.98;26.51
43119;BME280;28729;49.838;8.650;2023-04-06T13:01:06;99876.28;;;18.49;27.06
43119;BME280;28729;49.838;8.650;2023-04-06T13:05:08;99877.47;;;18.43;26.36
43119;BME280;28729;49.838;8.650;2023-04-06T13:09:10;99873.69;;;18.34;26.42
43119;BME280;28729;49.838;8.650;2023-04-06T13:13:11;99869.94;;;18.43;26.64
43119;BME280;28729;49.838;8.650;2023-04-06T13:17:13;99864.81;;;18.70;26.41
43119;BME280;28729;49.838;8.650;2023-04-06T13:21:15;99867.91;;;18.30;25.87
43119;BME280;28729;49.838;8.650;2023-04-06T13:25:17;99868.41;;;17.89;26.03
43119;BME280;28729;49.838;8.650;2023-04-06T13:29:19;99865.69;;;17.84;27.01
43119;BME280;28729;49.838;8.650;2023-04-06T13:33:21;99860.88;;;17.90;27.06
43119;BME280;28729;49.838;8.650;2023-04-06T13:37:23;99863.00;;;17.98;27.45
43119;BME280;28729;49.838;8.650;2023-04-06T13:41:25;99850.94;;;18.27;26.71
43119;BME280;28729;49.838;8.650;2023-04-06T13:45:27;99851.75;;;18.46;26.72
43119;BME280;28729;49.838;8.650;2023-04-06T13:49:29;99850.25;;;18.73;26.64
43119;BME280;28729;49.838;8.650;2023-04-06T13:53:31;99846.41;;;18.68;25.74
43119;BME280;28729;49.838;8.650;2023-04-06T13:57:33;99847.31;;;18.45;26.49
43119;BME280;28729;49.838;8.650;2023-04-06T14:01:35;99847.06;;;18.22;26.14
43119;BME280;28729;49.838;8.650;2023-04-06T14:05:37;99849.56;;;18.43;26.46
43119;BME280;28729;49.838;8.650;2023-04-06T14:09:38;99842.78;;;18.30;26.18
43119;BME280;28729;49.838;8.650;2023-04-06T14:13:40;99845.44;;;17.73;26.28
43119;BME280;28729;49.838;8.650;2023-04-06T14:17:44;99841.94;;;17.63;26.98
43119;BME280;28729;49.838;8.650;2023-04-06T14:21:47;99842.97;;;17.43;27.21
43119;BME280;28729;49.838;8.650;2023-04-06T14:25:49;99842.22;;;17.08;26.89
43119;BME280;28729;49.838;8.650;2023-04-06T14:29:51;99845.31;;;16.67;26.93
43119;BME280;28729;49.838;8.650;2023-04-06T14:33:54;99836.50;;;16.50;27.39
43119;BME280;28729;49.838;8.650;2023-04-06T14:37:56;99838.75;;;16.48;27.70
43119;BME280;28729;49.838;8.650;2023-04-06T14:42:00;99837.91;;;16.47;27.35
43119;BME280;28729;49.838;8.650;2023-04-06T14:46:02;99828.47;;;16.48;28.10
43119;BME280;28729;49.838;8.650;2023-04-06T14:50:04;99826.97;;;16.61;28.05
43119;BME280;28729;49.838;8.650;2023-04-06T14:54:07;99820.25;;;16.67;27.75
43119;BME280;28729;49.838;8.650;2023-04-06T14:58:09;99817.38;;;16.82;27.95
43119;BME280;28729;49.838;8.650;2023-04-06T15:02:10;99814.34;;;16.79;27.79
43119;BME280;28729;49.838;8.650;2023-04-06T15:06:14;99815.50;;;16.78;27.69
43119;BME280;28729;49.838;8.650;2023-04-06T15:10:17;99821.22;;;16.47;28.08
43119;BME280;28729;49.838;8.650;2023-04-06T15:14:18;99812.19;;;16.26;28.39
43119;BME280;28729;49.838;8.650;2023-04-06T15:18:20;99806.69;;;16.21;28.19
43119;BME280;28729;49.838;8.650;2023-04-06T15:22:22;99812.06;;;16.02;28.56
43119;BME280;28729;49.838;8.650;2023-04-06T15:26:24;99812.13;;;15.87;28.36
43119;BME280;28729;49.838;8.650;2023-04-06T15:30:27;99816.38;;;15.69;28.25
43119;BME280;28729;49.838;8.650;2023-04-06T15:34:32;99820.31;;;15.42;28.66
43119;BME280;28729;49.838;8.650;2023-04-06T15:38:35;99810.66;;;15.14;28.70
43119;BME280;28729;49.838;8.650;2023-04-06T15:42:37;99809.03;;;14.88;28.92
43119;BME280;28729;49.838;8.650;2023-04-06T15:46:39;99814.84;;;14.66;29.38
43119;BME280;28729;49.838;8.650;2023-04-06T15:50:40;99821.44;;;14.29;28.96
43119;BME280;28729;49.838;8.650;2023-04-06T15:54:44;99815.56;;;14.15;28.69
43119;BME280;28729;49.838;8.650;2023-04-06T15:58:48;99813.03;;;14.03;29.58
43119;BME280;28729;49.838;8.650;2023-04-06T16:02:50;99820.78;;;13.96;30.00
43119;BME280;28729;49.838;8.650;2023-04-06T16:06:52;99824.34;;;13.81;30.12
43119;BME280;28729;49.838;8.650;2023-04-06T16:10:53;99820.41;;;13.67;30.54
43119;BME280;28729;49.838;8.650;2023-04-06T16:14:55;99818.41;;;13.57;30.77
43119;BME280;28729;49.838;8.650;2023-04-06T16:18:57;99823.09;;;13.52;31.33
43119;BME280;28729;49.838;8.650;2023-04-06T16:22:59;99816.69;;;13.46;31.17
43119;BME280;28729;49.838;8.650;2023-04-06T16:27:01;99816.09;;;13.34;31.91
43119;BME280;28729;49.838;8.650;2023-04-06T16:31:03;99828.44;;;13.21;32.11
43119;BME280;28729;49.838;8.650;2023-04-06T16:35:05;99817.31;;;13.16;32.24
43119;BME280;28729;49.838;8.650;2023-04-06T16:39:08;99834.13;;;13.04;32.59
43119;BME280;28729;49.838;8.650;2023-04-06T16:43:10;99831.84;;;12.96;32.68
43119;BME280;28729;49.838;8.650;2023-04-06T16:47:12;99827.03;;;12.81;33.19
43119;BME280;28729;49.838;8.650;2023-04-06T16:51:14;99832.19;;;12.72;33.33
43119;BME280;28729;49.838;8.650;2023-04-06T16:55:16;99836.31;;;12.70;33.54
43119;BME280;28729;49.838;8.650;2023-04-06T16:59:18;99829.09;;;12.64;34.24
43119;BME280;28729;49.838;8.650;2023-04-06T17:03:20;99836.41;;;12.48;34.94
43119;BME280;28729;49.838;8.650;2023-04-06T17:07:22;99831.34;;;12.40;34.91
43119;BME280;28729;49.838;8.650;2023-04-06T17:11:26;99823.03;;;12.35;35.00
43119;BME280;28729;49.838;8.650;2023-04-06T17:15:40;99831.72;;;12.21;35.90
43119;BME280;28729;49.838;8.650;2023-04-06T17:19:43;99826.63;;;12.08;36.78
43119;BME280;28729;49.838;8.650;2023-04-06T17:23:45;99830.66;;;12.00;36.60
43119;BME280;28729;49.838;8.650;2023-04-06T17:27:47;99829.75;;;11.95;37.02
43119;BME280;28729;49.838;8.650;2023-04-06T17:31:49;99825.28;;;11.89;37.74
43119;BME280;28729;49.838;8.650;2023-04-06T17:35:52;99835.59;;;11.76;38.32
43119;BME280;28729;49.838;8.650;2023-04-06T17:39:56;99835.41;;;11.61;38.69
43119;BME280;28729;49.838;8.650;2023-04-06T17:43:58;99840.84;;;11.56;39.83
43119;BME280;28729;49.838;8.650;2023-04-06T17:48:01;99828.19;;;11.38;40.08
43119;BME280;28729;49.838;8.650;2023-04-06T17:52:02;99838.81;;;11.29;39.76
43119;BME280;28729;49.838;8.650;2023-04-06T17:56:04;99843.44;;;11.24;40.15
43119;BME280;28729;49.838;8.650;2023-04-06T18:00:07;99853.22;;;11.14;41.70
43119;BME280;28729;49.838;8.650;2023-04-06T18:04:09;99851.16;;;11.05;41.94
43119;BME280;28729;49.838;8.650;2023-04-06T18:08:10;99861.84;;;11.01;42.44
43119;BME280;28729;49.838;8.650;2023-04-06T18:12:13;99870.03;;;10.96;42.23
43119;BME280;28729;49.838;8.650;2023-04-06T18:16:15;99868.53;;;10.88;43.66
43119;BME280;28729;49.838;8.650;2023-04-06T18:20:18;99877.22;;;10.80;44.62
43119;BME280;28729;49.838;8.650;2023-04-06T18:24:20;99880.22;;;10.79;44.96
43119;BME280;28729;49.838;8.650;2023-04-06T18:28:41;99896.59;;;10.68;46.84
43119;BME280;28729;49.838;8.650;2023-04-06T18:32:44;99891.22;;;10.62;47.13
43119;BME280;28729;49.838;8.650;2023-04-06T18:36:46;99889.63;;;10.49;47.90
43119;BME280;28729;49.838;8.650;2023-04-06T18:40:48;99895.88;;;10.44;48.95
43119;BME280;28729;49.838;8.650;2023-04-06T18:44:50;99894.00;;;10.33;49.54
43119;BME280;28729;49.838;8.650;2023-04-06T18:48:52;99899.19;;;10.30;50.60
43119;BME280;28729;49.838;8.650;2023-04-06T18:52:54;99899.44;;;10.16;50.50
43119;BME280;28729;49.838;8.650;2023-04-06T18:56:55;99898.63;;;10.04;52.96
43119;BME280;28729;49.838;8.650;2023-04-06T19:00:58;99911.94;;;9.95;53.50
43119;BME280;28729;49.838;8.650;2023-04-06T19:05:05;99926.94;;;9.88;56.58
43119;BME280;28729;49.838;8.650;2023-04-06T19:09:07;99928.63;;;9.77;57.60
43119;BME280;28729;49.838;8.650;2023-04-06T19:13:09;99930.91;;;9.56;62.53
43119;BME280;28729;49.838;8.650;2023-04-06T19:17:11;99934.41;;;9.40;67.00
43119;BME280;28729;49.838;8.650;2023-04-06T19:25:17;99939.50;;;9.01;67.50
43119;BME280;28729;49.838;8.650;2023-04-06T19:29:19;99941.97;;;8.91;68.90
43119;BME280;28729;49.838;8.650;2023-04-06T19:33:21;99940.66;;;8.82;73.92
43119;BME280;28729;49.838;8.650;2023-04-06T19:37:22;99946.09;;;8.70;77.16
43119;BME280;28729;49.838;8.650;2023-04-06T19:41:24;99948.59;;;8.60;78.11
43119;BME280;28729;49.838;8.650;2023-04-06T19:45:27;99940.91;;;8.50;80.89
43119;BME280;28729;49.838;8.650;2023-04-06T19:49:30;99949.25;;;8.43;83.74
43119;BME280;28729;49.838;8.650;2023-04-06T19:53:32;99942.72;;;8.38;85.40
43119;BME280;28729;49.838;8.650;2023-04-06T19:57:33;99943.66;;;8.32;90.18
43119;BME280;28729;49.838;8.650;2023-04-06T20:01:35;99943.13;;;8.23;93.42
43119;BME280;28729;49.838;8.650;2023-04-06T20:05:37;99945.38;;;8.14;96.54
43119;BME280;28729;49.838;8.650;2023-04-06T20:09:39;99942.50;;;8.09;99.69
43119;BME280;28729;49.838;8.650;2023-04-06T20:13:41;99947.47;;;8.01;100.00
43119;BME280;28729;49.838;8.650;2023-04-06T20:17:43;99941.44;;;7.92;100.00
43119;BME280;28729;49.838;8.650;2023-04-06T20:21:45;99942.09;;;7.87;100.00
43119;BME280;28729;49.838;8.650;2023-04-06T20:25:48;99939.00;;;7.84;100.00
43119;BME280;28729;49.838;8.650;2023-04-06T20:29:50;99933.34;;;7.79;100.00
43119;BME280;28729;49.838;8.650;2023-04-06T20:33:53;99931.69;;;7.78;100.00
43119;BME280;28729;49.838;8.650;2023-04-06T20:37:55;99935.03;;;7.80;100.00
43119;BME280;28729;49.838;8.650;2023-04-06T20:41:57;99932.06;;;7.81;100.00
43119;BME280;28729;49.838;8.650;2023-04-06T20:45:59;99928.47;;;7.81;100.00
43119;BME280;28729;49.838;8.650;2023-04-06T20:50:06;99926.81;;;7.80;100.00
43119;BME280;28729;49.838;8.650;2023-04-06T20:54:08;99921.16;;;7.74;100.00
43119;BME280;28729;49.838;8.650;2023-04-06T20:58:10;99918.09;;;7.64;100.00
43119;BME280;28729;49.838;8.650;2023-04-06T21:02:12;99923.22;;;7.61;100.00
43119;BME280;28729;49.838;8.650;2023-04-06T21:06:14;99916.28;;;7.58;100.00
43119;BME280;28729;49.838;8.650;2023-04-06T21:10:16;99919.25;;;7.57;100.00
43119;BME280;28729;49.838;8.650;2023-04-06T21:14:18;99916.13;;;7.53;100.00
43119;BME280;28729;49.838;8.650;2023-04-06T21:18:22;99909.19;;;7.50;100.00
43119;BME280;28729;49.838;8.650;2023-04-06T21:22:23;99904.16;;;7.47;100.00
43119;BME280;28729;49.838;8.650;2023-04-06T21:26:25;99895.09;;;7.47;100.00
43119;BME280;28729;49.838;8.650;2023-04-06T21:30:27;99891.91;;;7.50;100.00
43119;BME280;28729;49.838;8.650;2023-04-06T21:34:29;99888.25;;;7.56;100.00
43119;BME280;28729;49.838;8.650;2023-04-06T21:38:31;99890.63;;;7.52;100.00